createdAt,value
2022-09-04T00:02:38.746Z,3.47
2022-09-04T00:05:53.342Z,3.00
2022-09-04T00:08:52.866Z,3.77
2022-09-04T00:11:58.938Z,3.57
2022-09-04T00:15:21.190Z,3.73
2022-09-04T00:18:23.450Z,4.00
2022-09-04T00:21:16.795Z,4.00
2022-09-04T00:24:10.538Z,3.50
2022-09-04T00:27:06.040Z,3.90
2022-09-04T00:30:05.171Z,3.23
2022-09-04T00:32:58.504Z,3.30
2022-09-04T00:35:55.217Z,3.73
2022-09-04T00:38:55.330Z,3.90
2022-09-04T00:42:18.227Z,3.80
2022-09-04T00:45:07.498Z,3.90
2022-09-04T00:48:25.218Z,3.77
2022-09-04T00:51:17.498Z,3.80
2022-09-04T00:54:21.701Z,3.97
2022-09-04T00:57:43.195Z,4.40
2022-09-04T01:00:30.814Z,4.90
2022-09-04T01:03:40.396Z,4.67
2022-09-04T01:06:40.826Z,5.20
2022-09-04T01:09:57.585Z,3.73
2022-09-04T01:13:00.389Z,5.20
2022-09-04T01:15:57.499Z,4.27
2022-09-04T01:19:19.846Z,6.03
2022-09-04T01:22:32.752Z,5.33
2022-09-04T01:25:51.108Z,5.70
2022-09-04T01:29:10.365Z,6.27
2022-09-04T01:32:32.817Z,5.43
2022-09-04T01:35:32.797Z,5.10
2022-09-04T01:38:35.503Z,5.47
2022-09-04T01:41:43.856Z,5.10
2022-09-04T01:44:34.058Z,6.30
2022-09-04T01:50:28.062Z,5.77
2022-09-04T01:53:23.842Z,5.50
2022-09-04T01:56:28.937Z,5.70
2022-09-04T01:59:27.240Z,5.70
2022-09-04T02:02:20.802Z,6.17
2022-09-04T02:05:29.331Z,6.13
2022-09-04T02:08:28.686Z,5.83
2022-09-04T02:11:19.419Z,7.17
2022-09-04T02:14:27.759Z,6.80
2022-09-04T02:17:32.611Z,6.17
2022-09-04T02:20:31.229Z,6.53
2022-09-04T02:23:30.005Z,7.63
2022-09-04T02:26:24.089Z,7.23
2022-09-04T02:29:55.991Z,6.13
2022-09-04T02:33:06.967Z,6.17
2022-09-04T02:36:06.414Z,6.90
2022-09-04T02:39:04.989Z,6.43
2022-09-04T02:42:34.254Z,7.90
2022-09-04T02:45:40.483Z,7.00
2022-09-04T02:49:02.263Z,7.67
2022-09-04T02:52:14.372Z,7.83
2022-09-04T02:55:23.891Z,7.90
2022-09-04T02:58:30.340Z,9.43
2022-09-04T03:01:59.504Z,9.03
2022-09-04T03:04:56.485Z,8.63
2022-09-04T03:07:58.523Z,9.10
2022-09-04T03:10:59.093Z,8.03
2022-09-04T03:14:18.566Z,8.60
2022-09-04T03:17:27.940Z,8.77
2022-09-04T03:20:22.020Z,8.50
2022-09-04T03:23:20.756Z,8.43
2022-09-04T03:26:10.836Z,8.93
2022-09-04T03:29:27.193Z,9.50
2022-09-04T03:32:20.345Z,9.47
2022-09-04T03:35:18.565Z,9.60
2022-09-04T03:38:18.382Z,9.00
2022-09-04T03:41:44.397Z,9.17
2022-09-04T03:44:46.962Z,10.10
2022-09-04T03:48:03.214Z,8.80
2022-09-04T03:50:53.479Z,10.70
2022-09-04T03:54:12.416Z,8.67
2022-09-04T03:57:13.486Z,9.67
2022-09-04T04:00:10.723Z,11.57
2022-09-04T04:03:32.946Z,12.40
2022-09-04T04:06:35.314Z,12.57
2022-09-04T04:09:38.863Z,11.97
2022-09-04T04:12:56.817Z,12.20
2022-09-04T04:16:08.357Z,12.33
2022-09-04T04:19:43.530Z,12.40
2022-09-04T04:22:33.336Z,12.17
2022-09-04T04:25:36.691Z,12.60
2022-09-04T04:28:35.990Z,12.63
2022-09-04T04:31:35.267Z,12.87
2022-09-04T04:34:37.398Z,11.17
2022-09-04T04:37:39.244Z,12.73
2022-09-04T04:40:26.741Z,13.00
2022-09-04T04:43:26.739Z,13.27
2022-09-04T04:46:35.300Z,13.03
2022-09-04T04:49:32.222Z,13.13
2022-09-04T04:52:23.811Z,11.83
2022-09-04T04:55:31.421Z,11.97
2022-09-04T04:58:32.351Z,12.57
2022-09-04T05:01:22.779Z,13.43
2022-09-04T05:04:16.773Z,13.37
2022-09-04T05:07:35.522Z,12.95
2022-09-04T05:10:37.673Z,12.50
2022-09-04T05:13:36.271Z,13.90
2022-09-04T05:16:43.131Z,11.63
2022-09-04T05:19:44.547Z,14.07
2022-09-04T05:22:36.997Z,13.27
2022-09-04T05:25:51.902Z,14.40
2022-09-04T05:28:56.004Z,12.63
2022-09-04T05:32:09.847Z,14.40
2022-09-04T05:35:24.669Z,3.73
2022-09-04T05:38:42.788Z,5.53
2022-09-04T05:42:02.189Z,6.23
2022-09-04T05:45:38.282Z,8.70
2022-09-04T05:48:47.595Z,10.30
2022-09-04T05:51:53.918Z,10.00
2022-09-04T05:55:04.599Z,11.13
2022-09-04T05:58:06.624Z,10.73
2022-09-04T06:01:07.780Z,12.00
2022-09-04T06:04:21.207Z,13.90
2022-09-04T06:07:16.926Z,12.53
2022-09-04T06:10:35.600Z,11.90
2022-09-04T06:14:10.730Z,13.13
2022-09-04T06:17:22.031Z,9.97
2022-09-04T06:20:32.803Z,10.07
2022-09-04T06:23:23.155Z,11.90
2022-09-04T06:26:41.042Z,12.23
2022-09-04T06:29:31.657Z,10.87
2022-09-04T06:33:00.410Z,10.53
2022-09-04T06:36:13.769Z,14.17
2022-09-04T06:39:26.556Z,13.50
2022-09-04T06:42:13.756Z,7.97
2022-09-04T06:45:27.412Z,9.30
2022-09-04T06:48:29.175Z,9.87
2022-09-04T06:51:45.124Z,10.20
2022-09-04T06:54:51.178Z,8.70
2022-09-04T06:58:05.388Z,8.87
2022-09-04T07:01:11.722Z,9.97
2022-09-04T07:04:17.636Z,11.13
2022-09-04T07:07:38.172Z,11.27
2022-09-04T07:10:59.136Z,8.80
2022-09-04T07:14:16.233Z,8.27
2022-09-04T07:17:09.197Z,11.43
2022-09-04T07:20:22.345Z,12.83
2022-09-04T07:23:32.590Z,16.40
2022-09-04T07:26:41.235Z,13.60
2022-09-04T07:29:36.643Z,11.10
2022-09-04T07:32:34.026Z,8.90
2022-09-04T07:35:40.700Z,8.73
2022-09-04T07:39:07.326Z,8.60
2022-09-04T07:42:20.972Z,10.83
2022-09-04T07:45:23.356Z,11.63
2022-09-04T07:48:32.304Z,11.10
2022-09-04T07:51:36.134Z,9.73
2022-09-04T07:54:39.148Z,8.60
2022-09-04T07:57:54.711Z,10.25
2022-09-04T08:15:44.191Z,10.35
2022-09-04T08:18:55.795Z,12.27
2022-09-04T08:33:10.442Z,15.32
2022-09-04T08:37:01.699Z,14.05
2022-09-04T08:40:21.773Z,12.80
2022-09-04T08:43:28.276Z,14.90
2022-09-04T08:47:37.326Z,15.13
2022-09-04T08:54:31.758Z,14.07
2022-09-04T08:57:25.775Z,14.00
2022-09-04T09:00:39.129Z,13.32
2022-09-04T09:08:05.712Z,12.07
2022-09-04T09:11:20.574Z,13.63
2022-09-04T09:14:45.848Z,14.30
2022-09-04T09:18:26.206Z,13.30
2022-09-04T09:22:13.873Z,15.40
2022-09-04T10:05:21.781Z,15.32
2022-09-04T10:08:35.449Z,13.88
2022-09-04T10:12:10.569Z,14.02
2022-09-04T10:15:42.950Z,13.88
2022-09-04T10:52:30.294Z,10.13
2022-09-04T11:02:26.157Z,11.85
2022-09-04T11:05:23.189Z,12.85
2022-09-04T11:08:36.564Z,13.85
2022-09-04T11:11:47.709Z,13.93
2022-09-04T11:23:47.162Z,8.85
2022-09-04T11:26:52.205Z,8.20
2022-09-04T11:30:13.997Z,9.10
2022-09-04T11:33:48.862Z,8.43
2022-09-04T11:39:36.840Z,7.78
2022-09-04T11:42:43.490Z,7.75
2022-09-04T11:46:12.642Z,11.85
2022-09-04T11:49:31.385Z,9.23
2022-09-04T11:52:31.208Z,8.93
2022-09-04T11:59:27.119Z,7.00
2022-09-04T12:06:19.626Z,9.18
2022-09-04T12:10:18.108Z,7.28
2022-09-04T12:13:28.984Z,7.28
2022-09-04T12:16:56.304Z,4.65
2022-09-04T12:26:37.398Z,4.25
2022-09-04T12:29:59.945Z,4.13
2022-09-04T12:33:08.247Z,2.90
2022-09-04T12:36:17.508Z,2.55
2022-09-04T12:39:20.824Z,2.80
2022-09-04T12:42:20.571Z,2.63
2022-09-04T12:45:21.447Z,3.22
2022-09-04T12:48:36.104Z,2.20
2022-09-04T12:51:26.547Z,2.50
2022-09-04T12:57:47.294Z,2.40
2022-09-04T13:00:49.718Z,3.08
2022-09-04T13:04:16.717Z,2.17
2022-09-04T13:07:16.213Z,2.72
2022-09-04T13:10:16.654Z,2.95
2022-09-04T13:13:19.574Z,2.80
2022-09-04T13:16:55.146Z,2.25
2022-09-04T13:30:05.712Z,2.85
2022-09-04T13:33:16.016Z,3.42
2022-09-04T13:42:52.601Z,2.75
2022-09-04T13:45:54.499Z,2.92
2022-09-04T13:48:47.310Z,3.22
2022-09-04T13:51:43.098Z,2.97
2022-09-04T13:54:37.568Z,2.83
2022-09-04T13:57:35.001Z,2.90
2022-09-04T14:00:22.665Z,2.63
2022-09-04T14:03:15.109Z,3.00
2022-09-04T14:06:05.511Z,2.78
2022-09-04T14:09:05.999Z,2.40
2022-09-04T14:12:20.071Z,2.92
2022-09-04T14:15:58.318Z,2.40
2022-09-04T14:19:24.417Z,2.78
2022-09-04T14:31:46.878Z,3.15
2022-09-04T14:35:08.654Z,2.40
2022-09-04T14:38:26.975Z,2.70
2022-09-04T14:41:54.043Z,2.37
2022-09-04T14:44:59.863Z,2.63
2022-09-04T14:47:55.114Z,3.33
2022-09-04T14:50:54.718Z,3.17
2022-09-04T14:54:05.635Z,2.60
2022-09-04T15:06:05.693Z,3.53
2022-09-04T15:08:53.942Z,3.03
2022-09-04T15:21:09.609Z,2.65
2022-09-04T15:24:15.003Z,2.90
2022-09-04T15:27:29.512Z,3.13
2022-09-04T15:30:28.658Z,3.40
2022-09-04T15:33:21.144Z,2.90
2022-09-04T15:36:18.456Z,3.45
2022-09-04T15:39:11.381Z,2.60
2022-09-04T15:42:10.485Z,3.70
2022-09-04T15:45:00.534Z,3.58
2022-09-04T15:48:06.691Z,6.70
2022-09-04T15:51:01.931Z,3.95
2022-09-04T15:54:09.812Z,4.32
2022-09-04T15:57:06.200Z,3.45
2022-09-04T16:00:01.559Z,3.63
2022-09-04T16:03:15.169Z,3.70
2022-09-04T16:06:19.351Z,4.07
2022-09-04T16:09:32.599Z,4.20
2022-09-04T16:12:31.261Z,3.28
2022-09-04T16:15:27.072Z,10.15
2022-09-04T16:18:23.190Z,3.85
2022-09-04T16:21:40.740Z,4.03
2022-09-04T16:24:39.970Z,3.97
2022-09-04T16:27:29.260Z,3.30
2022-09-04T16:30:33.140Z,6.68
2022-09-04T16:33:28.726Z,3.50
2022-09-04T16:36:29.312Z,3.35
2022-09-04T16:39:29.913Z,4.97
2022-09-04T16:42:24.566Z,6.00
2022-09-04T16:45:22.859Z,6.07
2022-09-04T16:48:43.189Z,22.70
2022-09-04T16:51:58.321Z,28.23
2022-09-04T16:54:53.284Z,18.30
2022-09-04T17:01:14.782Z,10.57
2022-09-04T17:04:31.296Z,8.90
2022-09-04T17:07:34.315Z,6.60
2022-09-04T17:10:48.358Z,7.20
2022-09-04T17:13:48.312Z,5.30
2022-09-04T17:17:04.293Z,5.60
2022-09-04T17:20:23.758Z,5.20
2022-09-04T17:29:00.321Z,5.50
2022-09-04T17:29:02.941Z,5.97
2022-09-04T17:37:44.057Z,4.90
2022-09-04T17:40:36.758Z,4.70
2022-09-04T17:40:37.323Z,5.53
2022-09-04T17:44:03.589Z,4.90
2022-09-04T17:47:09.664Z,5.35
2022-09-04T17:53:34.375Z,4.18
2022-09-04T17:57:35.129Z,4.90
2022-09-04T18:00:39.130Z,4.88
2022-09-04T18:04:26.800Z,3.97
2022-09-04T18:08:07.317Z,4.30
2022-09-04T18:11:07.447Z,4.88
2022-09-04T18:14:40.400Z,4.70
2022-09-04T18:17:43.661Z,4.57
2022-09-04T18:21:09.773Z,4.40
2022-09-04T18:24:34.371Z,3.90
2022-09-04T18:28:50.793Z,4.65
2022-09-04T18:37:11.275Z,4.22
2022-09-04T18:37:19.631Z,4.53
2022-09-04T18:39:10.017Z,4.63
2022-09-04T18:50:21.325Z,3.80
2022-09-04T18:50:36.245Z,3.75
2022-09-04T18:50:36.798Z,4.43
2022-09-04T18:52:56.858Z,3.88
2022-09-04T18:59:23.669Z,4.70
2022-09-04T19:02:42.450Z,3.80
2022-09-04T19:09:24.197Z,4.38
2022-09-04T19:12:20.098Z,3.85
2022-09-04T19:23:32.691Z,3.83
2022-09-04T19:26:38.635Z,4.28
2022-09-04T19:29:29.848Z,4.03
2022-09-04T19:32:38.328Z,4.30
2022-09-04T19:35:32.329Z,4.18
2022-09-04T19:42:09.405Z,4.90
2022-09-04T19:46:11.162Z,4.95
2022-09-04T19:46:15.958Z,4.97
2022-09-04T19:48:21.031Z,5.45
2022-09-04T19:53:32.278Z,5.40
2022-09-04T19:54:59.931Z,5.05
2022-09-04T19:58:10.409Z,5.68
2022-09-04T20:01:00.795Z,4.82
2022-09-04T20:04:23.579Z,5.93
2022-09-04T20:07:20.274Z,5.70
2022-09-04T20:10:37.268Z,6.03
2022-09-04T20:13:35.521Z,5.88
2022-09-04T20:16:28.785Z,5.88
2022-09-04T20:19:37.597Z,5.95
2022-09-04T20:22:35.284Z,5.95
2022-09-04T20:25:52.167Z,5.80
2022-09-04T20:28:47.817Z,5.25
2022-09-04T20:31:40.046Z,5.65
2022-09-04T20:34:46.507Z,5.43
2022-09-04T20:41:08.252Z,6.25
2022-09-04T20:44:19.562Z,5.70
2022-09-04T20:52:44.133Z,5.60
2022-09-04T20:52:57.194Z,5.93
2022-09-04T20:54:31.558Z,5.53
2022-09-04T21:03:13.651Z,6.03
2022-09-04T21:03:19.029Z,5.70
2022-09-04T21:04:14.317Z,5.90
2022-09-04T21:07:28.540Z,5.10
2022-09-04T21:10:35.421Z,5.80
2022-09-04T21:14:28.658Z,5.90
2022-09-04T21:17:53.862Z,5.82
2022-09-04T21:28:21.957Z,6.17
2022-09-04T21:31:33.481Z,5.57
2022-09-04T21:35:31.501Z,5.72
2022-09-04T21:38:52.165Z,5.50
2022-09-04T21:42:26.508Z,5.65
2022-09-04T21:49:26.411Z,4.77
2022-09-04T21:52:31.854Z,4.77
2022-09-04T21:57:28.818Z,4.93
2022-09-04T22:02:42.615Z,5.30
2022-09-04T22:03:42.861Z,5.37
2022-09-04T22:08:49.780Z,5.33
2022-09-04T22:13:34.389Z,5.20
2022-09-04T22:14:16.052Z,4.70
2022-09-04T22:17:28.336Z,4.53
2022-09-04T22:21:05.319Z,5.20
2022-09-04T22:28:09.113Z,5.20
2022-09-04T22:31:34.691Z,4.77
2022-09-04T22:34:51.231Z,5.00
2022-09-04T22:41:24.524Z,4.50
2022-09-04T22:44:47.768Z,4.50
2022-09-04T22:48:12.556Z,4.40
2022-09-04T22:51:31.998Z,4.30
2022-09-04T22:54:58.187Z,4.43
2022-09-04T22:58:36.500Z,4.20
2022-09-04T23:01:35.028Z,4.40
2022-09-04T23:05:15.204Z,3.87
2022-09-04T23:13:43.836Z,4.03
2022-09-04T23:14:01.021Z,3.60
2022-09-04T23:15:54.942Z,3.33
2022-09-04T23:23:13.907Z,4.00
2022-09-04T23:26:39.236Z,3.50
2022-09-04T23:26:42.534Z,3.70
2022-09-04T23:29:48.636Z,3.80
2022-09-04T23:32:41.745Z,3.47
2022-09-04T23:35:52.598Z,3.22
2022-09-04T23:48:04.499Z,3.67
2022-09-04T23:50:54.801Z,3.40
2022-09-04T23:54:29.598Z,3.70
2022-09-04T23:58:28.946Z,3.30
